sensor_id;sensor_type;location;lat;lon;timestamp;temperature;humidity
67354;SHT30;54238;52.278;21.056;2023-06-24T00:00:40;20.86;60.44
67354;SHT30;54238;52.278;21.056;2023-06-24T00:03:27;20.85;60.43
67354;SHT30;54238;52.278;21.056;2023-06-24T00:05:55;20.85;60.46
67354;SHT30;54238;52.278;21.056;2023-06-24T00:08:34;20.84;60.57
67354;SHT30;54238;52.278;21.056;2023-06-24T00:11:04;20.82;60.55
67354;SHT30;54238;52.278;21.056;2023-06-24T00:13:38;20.84;60.53
67354;SHT30;54238;52.278;21.056;2023-06-24T00:16:13;20.84;60.59
67354;SHT30;54238;52.278;21.056;2023-06-24T00:18:42;20.82;60.58
67354;SHT30;54238;52.278;21.056;2023-06-24T00:21:12;20.80;60.63
67354;SHT30;54238;52.278;21.056;2023-06-24T00:23:43;20.81;60.70
67354;SHT30;54238;52.278;21.056;2023-06-24T00:26:18;20.80;60.70
67354;SHT30;54238;52.278;21.056;2023-06-24T00:28:45;20.78;60.76
67354;SHT30;54238;52.278;21.056;2023-06-24T00:31:15;20.78;60.85
67354;SHT30;54238;52.278;21.056;2023-06-24T00:33:48;20.78;60.79
67354;SHT30;54238;52.278;21.056;2023-06-24T00:36:18;20.77;60.81
67354;SHT30;54238;52.278;21.056;2023-06-24T00:38:53;20.77;60.94
67354;SHT30;54238;52.278;21.056;2023-06-24T00:41:23;20.78;60.89
67354;SHT30;54238;52.278;21.056;2023-06-24T00:43:55;20.78;60.94
67354;SHT30;54238;52.278;21.056;2023-06-24T00:46:24;20.78;60.61
67354;SHT30;54238;52.278;21.056;2023-06-24T00:48:56;20.76;60.84
67354;SHT30;54238;52.278;21.056;2023-06-24T00:51:29;20.76;60.88
67354;SHT30;54238;52.278;21.056;2023-06-24T00:53:58;20.74;60.90
67354;SHT30;54238;52.278;21.056;2023-06-24T00:56:31;20.72;60.94
67354;SHT30;54238;52.278;21.056;2023-06-24T00:59:06;20.73;60.77
67354;SHT30;54238;52.278;21.056;2023-06-24T01:01:39;20.74;60.72
67354;SHT30;54238;52.278;21.056;2023-06-24T01:04:07;20.75;60.84
67354;SHT30;54238;52.278;21.056;2023-06-24T01:06:36;20.74;60.80
67354;SHT30;54238;52.278;21.056;2023-06-24T01:09:12;20.74;60.88
67354;SHT30;54238;52.278;21.056;2023-06-24T01:11:45;20.71;61.00
67354;SHT30;54238;52.278;21.056;2023-06-24T01:14:12;20.66;61.17
67354;SHT30;54238;52.278;21.056;2023-06-24T01:16:42;20.65;61.19
67354;SHT30;54238;52.278;21.056;2023-06-24T01:22:17;20.64;61.62
67354;SHT30;54238;52.278;21.056;2023-06-24T01:34:01;20.53;61.37
67354;SHT30;54238;52.278;21.056;2023-06-24T01:37:01;20.52;61.43
67354;SHT30;54238;52.278;21.056;2023-06-24T01:39:37;20.49;61.36
67354;SHT30;54238;52.278;21.056;2023-06-24T01:42:14;20.45;61.70
67354;SHT30;54238;52.278;21.056;2023-06-24T01:44:50;20.41;61.64
67354;SHT30;54238;52.278;21.056;2023-06-24T01:47:25;20.36;61.79
67354;SHT30;54238;52.278;21.056;2023-06-24T01:49:55;20.33;61.87
67354;SHT30;54238;52.278;21.056;2023-06-24T01:52:30;20.29;61.95
67354;SHT30;54238;52.278;21.056;2023-06-24T01:55:01;20.24;62.05
67354;SHT30;54238;52.278;21.056;2023-06-24T01:57:35;20.19;62.06
67354;SHT30;54238;52.278;21.056;2023-06-24T02:00:08;20.14;62.04
67354;SHT30;54238;52.278;21.056;2023-06-24T02:02:40;20.08;61.92
67354;SHT30;54238;52.278;21.056;2023-06-24T02:05:08;20.04;62.00
67354;SHT30;54238;52.278;21.056;2023-06-24T02:07:39;20.01;62.24
67354;SHT30;54238;52.278;21.056;2023-06-24T02:10:12;19.95;62.36
67354;SHT30;54238;52.278;21.056;2023-06-24T02:12:43;19.92;62.44
67354;SHT30;54238;52.278;21.056;2023-06-24T02:15:18;19.89;62.50
67354;SHT30;54238;52.278;21.056;2023-06-24T02:17:53;19.84;62.56
67354;SHT30;54238;52.278;21.056;2023-06-24T02:20:25;19.81;62.65
67354;SHT30;54238;52.278;21.056;2023-06-24T02:22:58;19.79;62.74
67354;SHT30;54238;52.278;21.056;2023-06-24T02:25:28;19.82;62.85
67354;SHT30;54238;52.278;21.056;2023-06-24T02:27:58;19.84;62.97
67354;SHT30;54238;52.278;21.056;2023-06-24T02:30:30;19.85;63.12
67354;SHT30;54238;52.278;21.056;2023-06-24T02:33:01;19.84;63.14
67354;SHT30;54238;52.278;21.056;2023-06-24T02:35:29;19.85;63.23
67354;SHT30;54238;52.278;21.056;2023-06-24T02:38:02;19.86;63.30
67354;SHT30;54238;52.278;21.056;2023-06-24T02:40:31;19.87;63.39
67354;SHT30;54238;52.278;21.056;2023-06-24T02:43:01;19.89;63.54
67354;SHT30;54238;52.278;21.056;2023-06-24T02:45:28;19.89;63.57
67354;SHT30;54238;52.278;21.056;2023-06-24T02:47:58;19.86;63.87
67354;SHT30;54238;52.278;21.056;2023-06-24T02:50:29;19.86;63.90
67354;SHT30;54238;52.278;21.056;2023-06-24T02:53:00;19.86;63.82
67354;SHT30;54238;52.278;21.056;2023-06-24T02:55:32;19.87;63.95
67354;SHT30;54238;52.278;21.056;2023-06-24T02:58:04;19.88;63.90
67354;SHT30;54238;52.278;21.056;2023-06-24T03:00:37;19.89;64.01
67354;SHT30;54238;52.278;21.056;2023-06-24T03:03:06;19.88;64.11
67354;SHT30;54238;52.278;21.056;2023-06-24T03:05:34;19.89;64.06
67354;SHT30;54238;52.278;21.056;2023-06-24T03:08:04;19.87;64.15
67354;SHT30;54238;52.278;21.056;2023-06-24T03:10:36;19.88;64.13
67354;SHT30;54238;52.278;21.056;2023-06-24T03:13:04;19.87;64.38
67354;SHT30;54238;52.278;21.056;2023-06-24T03:15:34;19.87;64.29
67354;SHT30;54238;52.278;21.056;2023-06-24T03:18:03;19.86;64.46
67354;SHT30;54238;52.278;21.056;2023-06-24T03:20:33;19.88;64.72
67354;SHT30;54238;52.278;21.056;2023-06-24T03:23:05;19.89;64.64
67354;SHT30;54238;52.278;21.056;2023-06-24T03:25:34;19.90;64.73
67354;SHT30;54238;52.278;21.056;2023-06-24T03:28:08;19.88;64.63
67354;SHT30;54238;52.278;21.056;2023-06-24T03:30:35;19.90;64.76
67354;SHT30;54238;52.278;21.056;2023-06-24T03:33:10;19.91;64.96
67354;SHT30;54238;52.278;21.056;2023-06-24T03:35:43;19.93;65.03
67354;SHT30;54238;52.278;21.056;2023-06-24T03:38:11;19.94;65.08
67354;SHT30;54238;52.278;21.056;2023-06-24T03:40:38;19.95;65.20
67354;SHT30;54238;52.278;21.056;2023-06-24T03:43:09;19.96;65.25
67354;SHT30;54238;52.278;21.056;2023-06-24T03:45:41;19.97;65.36
67354;SHT30;54238;52.278;21.056;2023-06-24T03:48:09;19.97;65.36
67354;SHT30;54238;52.278;21.056;2023-06-24T03:50:37;19.97;65.55
67354;SHT30;54238;52.278;21.056;2023-06-24T03:53:08;19.98;65.59
67354;SHT30;54238;52.278;21.056;2023-06-24T03:55:39;19.98;65.50
67354;SHT30;54238;52.278;21.056;2023-06-24T03:58:06;20.01;65.66
67354;SHT30;54238;52.278;21.056;2023-06-24T04:00:34;20.04;65.68
67354;SHT30;54238;52.278;21.056;2023-06-24T04:03:07;20.07;65.68
67354;SHT30;54238;52.278;21.056;2023-06-24T04:05:37;20.09;65.80
67354;SHT30;54238;52.278;21.056;2023-06-24T04:08:07;20.10;66.00
67354;SHT30;54238;52.278;21.056;2023-06-24T04:10:34;20.13;66.18
67354;SHT30;54238;52.278;21.056;2023-06-24T04:13:08;20.15;65.99
67354;SHT30;54238;52.278;21.056;2023-06-24T04:15:41;20.15;66.08
67354;SHT30;54238;52.278;21.056;2023-06-24T04:18:11;20.16;66.27
67354;SHT30;54238;52.278;21.056;2023-06-24T04:20:41;20.20;66.26
67354;SHT30;54238;52.278;21.056;2023-06-24T04:23:08;20.24;66.00
67354;SHT30;54238;52.278;21.056;2023-06-24T04:25:37;20.27;65.84
67354;SHT30;54238;52.278;21.056;2023-06-24T04:28:06;20.34;65.77
67354;SHT30;54238;52.278;21.056;2023-06-24T04:30:36;20.41;65.74
67354;SHT30;54238;52.278;21.056;2023-06-24T04:33:05;20.46;65.69
67354;SHT30;54238;52.278;21.056;2023-06-24T04:35:37;20.51;65.57
67354;SHT30;54238;52.278;21.056;2023-06-24T04:38:05;20.55;65.73
67354;SHT30;54238;52.278;21.056;2023-06-24T04:40:37;20.59;65.63
67354;SHT30;54238;52.278;21.056;2023-06-24T04:43:08;20.67;65.81
67354;SHT30;54238;52.278;21.056;2023-06-24T04:45:40;20.75;65.69
67354;SHT30;54238;52.278;21.056;2023-06-24T04:48:09;20.82;65.38
67354;SHT30;54238;52.278;21.056;2023-06-24T04:50:36;20.90;65.64
67354;SHT30;54238;52.278;21.056;2023-06-24T04:53:05;20.98;65.49
67354;SHT30;54238;52.278;21.056;2023-06-24T04:55:34;21.05;64.94
67354;SHT30;54238;52.278;21.056;2023-06-24T04:58:03;21.09;64.81
67354;SHT30;54238;52.278;21.056;2023-06-24T05:00:33;21.20;64.43
67354;SHT30;54238;52.278;21.056;2023-06-24T05:03:02;21.26;63.95
67354;SHT30;54238;52.278;21.056;2023-06-24T05:05:32;21.34;63.85
67354;SHT30;54238;52.278;21.056;2023-06-24T05:08:00;21.39;63.91
67354;SHT30;54238;52.278;21.056;2023-06-24T05:10:27;21.45;64.01
67354;SHT30;54238;52.278;21.056;2023-06-24T05:12:59;21.51;63.91
67354;SHT30;54238;52.278;21.056;2023-06-24T05:15:26;21.58;64.16
67354;SHT30;54238;52.278;21.056;2023-06-24T05:17:56;21.64;63.76
67354;SHT30;54238;52.278;21.056;2023-06-24T05:20:26;21.73;63.18
67354;SHT30;54238;52.278;21.056;2023-06-24T05:22:56;21.82;62.66
67354;SHT30;54238;52.278;21.056;2023-06-24T05:25:22;21.87;62.59
67354;SHT30;54238;52.278;21.056;2023-06-24T05:27:50;21.95;62.40
67354;SHT30;54238;52.278;21.056;2023-06-24T05:30:20;22.04;62.10
67354;SHT30;54238;52.278;21.056;2023-06-24T05:32:47;22.10;62.13
67354;SHT30;54238;52.278;21.056;2023-06-24T05:35:19;22.19;62.13
67354;SHT30;54238;52.278;21.056;2023-06-24T05:37:47;22.28;61.35
67354;SHT30;54238;52.278;21.056;2023-06-24T05:40:19;22.34;60.74
67354;SHT30;54238;52.278;21.056;2023-06-24T05:42:46;22.39;60.38
67354;SHT30;54238;52.278;21.056;2023-06-24T05:45:18;22.43;59.99
67354;SHT30;54238;52.278;21.056;2023-06-24T05:47:54;22.45;59.96
67354;SHT30;54238;52.278;21.056;2023-06-24T05:50:21;22.52;60.38
67354;SHT30;54238;52.278;21.056;2023-06-24T05:52:52;22.63;60.70
67354;SHT30;54238;52.278;21.056;2023-06-24T05:55:22;22.75;60.68
67354;SHT30;54238;52.278;21.056;2023-06-24T05:57:53;22.84;60.57
67354;SHT30;54238;52.278;21.056;2023-06-24T06:00:21;22.92;60.19
67354;SHT30;54238;52.278;21.056;2023-06-24T06:02:51;22.98;59.24
67354;SHT30;54238;52.278;21.056;2023-06-24T06:05:21;23.03;58.80
67354;SHT30;54238;52.278;21.056;2023-06-24T06:07:49;23.10;58.75
67354;SHT30;54238;52.278;21.056;2023-06-24T06:10:22;23.19;59.05
67354;SHT30;54238;52.278;21.056;2023-06-24T06:12:49;23.27;58.95
67354;SHT30;54238;52.278;21.056;2023-06-24T06:15:16;23.35;58.81
67354;SHT30;54238;52.278;21.056;2023-06-24T06:17:45;23.44;58.68
67354;SHT30;54238;52.278;21.056;2023-06-24T06:20:17;23.54;58.32
67354;SHT30;54238;52.278;21.056;2023-06-24T06:22:47;23.61;57.92
67354;SHT30;54238;52.278;21.056;2023-06-24T06:25:17;23.65;57.69
67354;SHT30;54238;52.278;21.056;2023-06-24T06:27:45;23.69;57.57
67354;SHT30;54238;52.278;21.056;2023-06-24T06:30:13;23.72;57.57
67354;SHT30;54238;52.278;21.056;2023-06-24T06:32:41;23.76;57.39
67354;SHT30;54238;52.278;21.056;2023-06-24T06:35:08;23.76;57.20
67354;SHT30;54238;52.278;21.056;2023-06-24T06:37:36;23.79;57.17
67354;SHT30;54238;52.278;21.056;2023-06-24T06:40:08;23.89;57.15
67354;SHT30;54238;52.278;21.056;2023-06-24T06:42:35;23.97;57.00
67354;SHT30;54238;52.278;21.056;2023-06-24T06:45:07;24.09;56.40
67354;SHT30;54238;52.278;21.056;2023-06-24T06:47:37;24.22;55.90
67354;SHT30;54238;52.278;21.056;2023-06-24T06:50:07;24.35;55.80
67354;SHT30;54238;52.278;21.056;2023-06-24T06:52:39;24.47;55.68
67354;SHT30;54238;52.278;21.056;2023-06-24T06:55:09;24.54;55.25
67354;SHT30;54238;52.278;21.056;2023-06-24T06:57:41;24.62;54.98
67354;SHT30;54238;52.278;21.056;2023-06-24T07:00:11;24.66;54.89
67354;SHT30;54238;52.278;21.056;2023-06-24T07:02:38;24.74;54.87
67354;SHT30;54238;52.278;21.056;2023-06-24T07:05:06;24.80;54.52
67354;SHT30;54238;52.278;21.056;2023-06-24T07:07:39;24.82;54.05
67354;SHT30;54238;52.278;21.056;2023-06-24T07:10:14;24.82;53.86
67354;SHT30;54238;52.278;21.056;2023-06-24T07:12:44;24.86;54.02
67354;SHT30;54238;52.278;21.056;2023-06-24T07:15:12;24.92;54.01
67354;SHT30;54238;52.278;21.056;2023-06-24T07:17:46;24.98;53.11
67354;SHT30;54238;52.278;21.056;2023-06-24T07:20:16;25.00;52.53
67354;SHT30;54238;52.278;21.056;2023-06-24T07:22:45;25.08;53.04
67354;SHT30;54238;52.278;21.056;2023-06-24T07:25:15;25.19;53.52
67354;SHT30;54238;52.278;21.056;2023-06-24T07:27:48;25.30;52.45
67354;SHT30;54238;52.278;21.056;2023-06-24T07:30:18;25.36;51.95
67354;SHT30;54238;52.278;21.056;2023-06-24T07:32:47;25.46;50.85
67354;SHT30;54238;52.278;21.056;2023-06-24T07:35:14;25.54;51.08
67354;SHT30;54238;52.278;21.056;2023-06-24T07:37:42;25.62;51.05
67354;SHT30;54238;52.278;21.056;2023-06-24T07:40:12;25.69;49.24
67354;SHT30;54238;52.278;21.056;2023-06-24T07:42:44;25.64;48.41
67354;SHT30;54238;52.278;21.056;2023-06-24T07:45:13;25.65;49.23
67354;SHT30;54238;52.278;21.056;2023-06-24T07:47:41;25.75;50.11
67354;SHT30;54238;52.278;21.056;2023-06-24T07:50:08;25.86;48.98
67354;SHT30;54238;52.278;21.056;2023-06-24T07:52:37;25.90;48.00
67354;SHT30;54238;52.278;21.056;2023-06-24T07:55:05;25.91;47.76
67354;SHT30;54238;52.278;21.056;2023-06-24T07:57:32;25.93;47.46
67354;SHT30;54238;52.278;21.056;2023-06-24T08:00:00;25.93;46.79
67354;SHT30;54238;52.278;21.056;2023-06-24T08:02:27;25.96;46.93
67354;SHT30;54238;52.278;21.056;2023-06-24T08:04:57;26.02;48.00
67354;SHT30;54238;52.278;21.056;2023-06-24T08:07:24;26.02;46.87
67354;SHT30;54238;52.278;21.056;2023-06-24T08:09:56;25.91;44.21
67354;SHT30;54238;52.278;21.056;2023-06-24T08:12:24;25.78;44.28
67354;SHT30;54238;52.278;21.056;2023-06-24T08:14:54;25.66;43.82
67354;SHT30;54238;52.278;21.056;2023-06-24T08:17:20;25.62;44.47
67354;SHT30;54238;52.278;21.056;2023-06-24T08:19:50;25.61;42.81
67354;SHT30;54238;52.278;21.056;2023-06-24T08:22:19;25.63;42.87
67354;SHT30;54238;52.278;21.056;2023-06-24T08:24:49;25.69;42.26
67354;SHT30;54238;52.278;21.056;2023-06-24T08:27:16;25.75;42.75
67354;SHT30;54238;52.278;21.056;2023-06-24T08:29:46;25.89;42.52
67354;SHT30;54238;52.278;21.056;2023-06-24T08:32:13;25.98;42.02
67354;SHT30;54238;52.278;21.056;2023-06-24T08:34:43;26.08;42.19
67354;SHT30;54238;52.278;21.056;2023-06-24T08:37:15;26.18;41.35
67354;SHT30;54238;52.278;21.056;2023-06-24T08:39:43;26.16;40.91
67354;SHT30;54238;52.278;21.056;2023-06-24T08:42:10;26.18;41.59
67354;SHT30;54238;52.278;21.056;2023-06-24T08:44:41;26.29;41.59
67354;SHT30;54238;52.278;21.056;2023-06-24T08:47:09;26.40;40.73
67354;SHT30;54238;52.278;21.056;2023-06-24T08:49:38;26.37;41.07
67354;SHT30;54238;52.278;21.056;2023-06-24T08:52:16;26.46;41.36
67354;SHT30;54238;52.278;21.056;2023-06-24T08:54:45;26.60;41.31
67354;SHT30;54238;52.278;21.056;2023-06-24T08:57:19;26.75;40.98
67354;SHT30;54238;52.278;21.056;2023-06-24T08:59:48;26.96;41.60
67354;SHT30;54238;52.278;21.056;2023-06-24T09:02:22;27.14;39.20
67354;SHT30;54238;52.278;21.056;2023-06-24T09:04:50;27.12;38.05
67354;SHT30;54238;52.278;21.056;2023-06-24T09:07:27;27.08;38.18
67354;SHT30;54238;52.278;21.056;2023-06-24T09:09:55;27.03;38.30
67354;SHT30;54238;52.278;21.056;2023-06-24T09:12:25;26.98;38.69
67354;SHT30;54238;52.278;21.056;2023-06-24T09:14:55;26.93;38.50
67354;SHT30;54238;52.278;21.056;2023-06-24T09:17:25;26.85;38.20
67354;SHT30;54238;52.278;21.056;2023-06-24T09:19:52;26.85;39.09
67354;SHT30;54238;52.278;21.056;2023-06-24T09:22:19;26.95;39.52
67354;SHT30;54238;52.278;21.056;2023-06-24T09:24:48;26.99;38.79
67354;SHT30;54238;52.278;21.056;2023-06-24T09:27:16;26.90;38.69
67354;SHT30;54238;52.278;21.056;2023-06-24T09:29:48;26.81;38.64
67354;SHT30;54238;52.278;21.056;2023-06-24T09:32:15;26.77;38.97
67354;SHT30;54238;52.278;21.056;2023-06-24T09:34:50;26.68;38.78
67354;SHT30;54238;52.278;21.056;2023-06-24T09:37:23;26.56;39.30
67354;SHT30;54238;52.278;21.056;2023-06-24T09:39:54;26.50;39.56
67354;SHT30;54238;52.278;21.056;2023-06-24T09:42:23;26.58;39.90
67354;SHT30;54238;52.278;21.056;2023-06-24T09:44:56;26.66;38.71
67354;SHT30;54238;52.278;21.056;2023-06-24T09:47:24;26.70;37.74
67354;SHT30;54238;52.278;21.056;2023-06-24T09:49:54;26.82;38.50
67354;SHT30;54238;52.278;21.056;2023-06-24T09:52:21;26.84;37.87
67354;SHT30;54238;52.278;21.056;2023-06-24T09:54:52;26.94;38.29
67354;SHT30;54238;52.278;21.056;2023-06-24T09:57:32;27.06;38.10
67354;SHT30;54238;52.278;21.056;2023-06-24T10:00:03;27.07;37.88
67354;SHT30;54238;52.278;21.056;2023-06-24T10:02:37;27.09;38.10
67354;SHT30;54238;52.278;21.056;2023-06-24T10:05:05;27.07;38.49
67354;SHT30;54238;52.278;21.056;2023-06-24T10:07:34;27.13;39.14
67354;SHT30;54238;52.278;21.056;2023-06-24T10:10:03;27.22;38.11
67354;SHT30;54238;52.278;21.056;2023-06-24T10:12:35;27.18;37.42
67354;SHT30;54238;52.278;21.056;2023-06-24T10:15:08;27.18;38.05
67354;SHT30;54238;52.278;21.056;2023-06-24T10:17:41;27.07;37.93
67354;SHT30;54238;52.278;21.056;2023-06-24T10:20:11;26.96;38.11
67354;SHT30;54238;52.278;21.056;2023-06-24T10:22:40;26.91;38.30
67354;SHT30;54238;52.278;21.056;2023-06-24T10:25:17;26.90;38.19
67354;SHT30;54238;52.278;21.056;2023-06-24T10:27:50;26.92;38.69
67354;SHT30;54238;52.278;21.056;2023-06-24T10:30:27;27.02;37.87
67354;SHT30;54238;52.278;21.056;2023-06-24T10:32:55;27.05;37.45
67354;SHT30;54238;52.278;21.056;2023-06-24T10:35:26;27.13;37.89
67354;SHT30;54238;52.278;21.056;2023-06-24T10:38:02;27.28;37.76
67354;SHT30;54238;52.278;21.056;2023-06-24T10:40:35;27.40;37.26
67354;SHT30;54238;52.278;21.056;2023-06-24T10:45:54;27.75;37.61
67354;SHT30;54238;52.278;21.056;2023-06-24T10:48:27;27.94;36.19
67354;SHT30;54238;52.278;21.056;2023-06-24T10:51:01;27.87;36.36
67354;SHT30;54238;52.278;21.056;2023-06-24T10:53:30;27.86;36.40
67354;SHT30;54238;52.278;21.056;2023-06-24T10:55:58;27.82;36.27
67354;SHT30;54238;52.278;21.056;2023-06-24T10:58:30;27.69;36.22
67354;SHT30;54238;52.278;21.056;2023-06-24T11:01:07;27.57;36.70
67354;SHT30;54238;52.278;21.056;2023-06-24T11:03:36;27.50;36.69
67354;SHT30;54238;52.278;21.056;2023-06-24T11:06:06;27.41;36.65
67354;SHT30;54238;52.278;21.056;2023-06-24T11:08:43;27.28;37.22
67354;SHT30;54238;52.278;21.056;2023-06-24T11:11:17;27.31;37.41
67354;SHT30;54238;52.278;21.056;2023-06-24T11:13:48;27.17;37.15
67354;SHT30;54238;52.278;21.056;2023-06-24T11:16:19;27.00;37.87
67354;SHT30;54238;52.278;21.056;2023-06-24T11:18:48;26.85;38.18
67354;SHT30;54238;52.278;21.056;2023-06-24T11:26:04;26.20;39.92
67354;SHT30;54238;52.278;21.056;2023-06-24T11:28:31;26.03;40.28
67354;SHT30;54238;52.278;21.056;2023-06-24T11:31:07;25.93;40.45
67354;SHT30;54238;52.278;21.056;2023-06-24T11:33:39;25.77;40.18
67354;SHT30;54238;52.278;21.056;2023-06-24T11:36:10;25.60;40.15
67354;SHT30;54238;52.278;21.056;2023-06-24T11:38:39;25.49;40.56
67354;SHT30;54238;52.278;21.056;2023-06-24T11:41:09;25.40;40.75
67354;SHT30;54238;52.278;21.056;2023-06-24T11:43:44;25.38;41.07
67354;SHT30;54238;52.278;21.056;2023-06-24T11:46:25;25.31;41.18
67354;SHT30;54238;52.278;21.056;2023-06-24T11:49:05;25.22;41.43
67354;SHT30;54238;52.278;21.056;2023-06-24T11:51:36;25.14;41.59
67354;SHT30;54238;52.278;21.056;2023-06-24T11:54:05;25.13;41.94
67354;SHT30;54238;52.278;21.056;2023-06-24T11:56:36;25.13;42.02
67354;SHT30;54238;52.278;21.056;2023-06-24T11:59:16;25.11;42.18
67354;SHT30;54238;52.278;21.056;2023-06-24T12:02:01;25.11;42.39
67354;SHT30;54238;52.278;21.056;2023-06-24T12:04:31;25.10;42.68
67354;SHT30;54238;52.278;21.056;2023-06-24T12:07:06;25.11;43.08
67354;SHT30;54238;52.278;21.056;2023-06-24T12:09:33;25.08;42.54
67354;SHT30;54238;52.278;21.056;2023-06-24T12:12:03;25.04;42.54
67354;SHT30;54238;52.278;21.056;2023-06-24T12:14:34;25.05;42.67
67354;SHT30;54238;52.278;21.056;2023-06-24T12:17:03;25.05;42.39
67354;SHT30;54238;52.278;21.056;2023-06-24T12:19:30;24.99;42.50
67354;SHT30;54238;52.278;21.056;2023-06-24T12:21:59;24.95;42.58
67354;SHT30;54238;52.278;21.056;2023-06-24T12:24:29;24.89;42.86
67354;SHT30;54238;52.278;21.056;2023-06-24T12:26:58;24.86;43.32
67354;SHT30;54238;52.278;21.056;2023-06-24T12:29:28;24.86;43.75
67354;SHT30;54238;52.278;21.056;2023-06-24T12:32:00;24.88;43.83
67354;SHT30;54238;52.278;21.056;2023-06-24T12:34:35;24.85;43.53
67354;SHT30;54238;52.278;21.056;2023-06-24T12:37:04;24.77;43.52
67354;SHT30;54238;52.278;21.056;2023-06-24T12:39:31;24.72;43.20
67354;SHT30;54238;52.278;21.056;2023-06-24T12:41:58;24.66;43.44
67354;SHT30;54238;52.278;21.056;2023-06-24T12:44:25;24.61;43.69
67354;SHT30;54238;52.278;21.056;2023-06-24T12:46:58;24.60;43.89
67354;SHT30;54238;52.278;21.056;2023-06-24T12:49:27;24.64;43.93
67354;SHT30;54238;52.278;21.056;2023-06-24T12:51:59;24.72;43.95
67354;SHT30;54238;52.278;21.056;2023-06-24T12:54:30;24.79;43.99
67354;SHT30;54238;52.278;21.056;2023-06-24T12:56:59;24.82;43.68
67354;SHT30;54238;52.278;21.056;2023-06-24T12:59:30;24.89;43.52
67354;SHT30;54238;52.278;21.056;2023-06-24T13:01:57;24.99;43.40
67354;SHT30;54238;52.278;21.056;2023-06-24T13:04:24;25.10;42.92
67354;SHT30;54238;52.278;21.056;2023-06-24T13:06:51;25.20;42.77
67354;SHT30;54238;52.278;21.056;2023-06-24T13:09:23;25.28;42.85
67354;SHT30;54238;52.278;21.056;2023-06-24T13:11:50;25.36;42.59
67354;SHT30;54238;52.278;21.056;2023-06-24T13:14:21;25.53;42.81
67354;SHT30;54238;52.278;21.056;2023-06-24T13:16:54;25.77;42.76
67354;SHT30;54238;52.278;21.056;2023-06-24T13:19:24;25.91;42.55
67354;SHT30;54238;52.278;21.056;2023-06-24T13:21:53;26.00;43.00
67354;SHT30;54238;52.278;21.056;2023-06-24T13:24:21;25.98;43.26
67354;SHT30;54238;52.278;21.056;2023-06-24T13:26:52;25.98;43.13
67354;SHT30;54238;52.278;21.056;2023-06-24T13:29:19;25.97;43.07
67354;SHT30;54238;52.278;21.056;2023-06-24T13:31:47;26.03;43.18
67354;SHT30;54238;52.278;21.056;2023-06-24T13:34:19;26.11;43.10
67354;SHT30;54238;52.278;21.056;2023-06-24T13:36:46;26.16;42.79
67354;SHT30;54238;52.278;21.056;2023-06-24T13:39:16;26.21;42.27
67354;SHT30;54238;52.278;21.056;2023-06-24T13:41:51;26.18;41.81
67354;SHT30;54238;52.278;21.056;2023-06-24T13:44:21;26.22;41.68
67354;SHT30;54238;52.278;21.056;2023-06-24T13:46:48;26.25;41.24
67354;SHT30;54238;52.278;21.056;2023-06-24T13:49:19;26.30;41.00
67354;SHT30;54238;52.278;21.056;2023-06-24T13:51:49;26.28;40.18
67354;SHT30;54238;52.278;21.056;2023-06-24T13:54:18;26.13;39.99
67354;SHT30;54238;52.278;21.056;2023-06-24T13:56:46;26.05;39.80
67354;SHT30;54238;52.278;21.056;2023-06-24T13:59:17;25.95;39.52
67354;SHT30;54238;52.278;21.056;2023-06-24T14:01:45;25.85;39.82
67354;SHT30;54238;52.278;21.056;2023-06-24T14:04:15;25.67;39.76
67354;SHT30;54238;52.278;21.056;2023-06-24T14:06:44;25.58;40.36
67354;SHT30;54238;52.278;21.056;2023-06-24T14:09:13;25.46;40.37
67354;SHT30;54238;52.278;21.056;2023-06-24T14:11:40;25.33;40.58
67354;SHT30;54238;52.278;21.056;2023-06-24T14:14:09;25.24;40.91
67354;SHT30;54238;52.278;21.056;2023-06-24T14:16:39;25.18;40.94
67354;SHT30;54238;52.278;21.056;2023-06-24T14:19:09;25.05;41.35
67354;SHT30;54238;52.278;21.056;2023-06-24T14:21:41;24.91;41.73
67354;SHT30;54238;52.278;21.056;2023-06-24T14:24:10;24.80;42.00
67354;SHT30;54238;52.278;21.056;2023-06-24T14:26:37;24.67;42.24
67354;SHT30;54238;52.278;21.056;2023-06-24T14:29:10;24.60;42.70
67354;SHT30;54238;52.278;21.056;2023-06-24T14:31:37;24.51;42.74
67354;SHT30;54238;52.278;21.056;2023-06-24T14:34:05;24.40;42.71
67354;SHT30;54238;52.278;21.056;2023-06-24T14:36:35;24.31;42.89
67354;SHT30;54238;52.278;21.056;2023-06-24T14:39:07;24.22;43.14
67354;SHT30;54238;52.278;21.056;2023-06-24T14:41:36;24.18;43.39
67354;SHT30;54238;52.278;21.056;2023-06-24T14:44:04;24.16;43.66
67354;SHT30;54238;52.278;21.056;2023-06-24T14:46:31;24.12;43.83
67354;SHT30;54238;52.278;21.056;2023-06-24T14:48:58;24.11;43.88
67354;SHT30;54238;52.278;21.056;2023-06-24T14:51:27;24.08;43.87
67354;SHT30;54238;52.278;21.056;2023-06-24T14:53:54;24.04;44.20
67354;SHT30;54238;52.278;21.056;2023-06-24T14:56:24;23.98;44.66
67354;SHT30;54238;52.278;21.056;2023-06-24T14:58:54;23.93;45.15
67354;SHT30;54238;52.278;21.056;2023-06-24T15:01:24;23.87;45.79
67354;SHT30;54238;52.278;21.056;2023-06-24T15:03:54;23.79;46.58
67354;SHT30;54238;52.278;21.056;2023-06-24T15:06:25;23.70;47.06
67354;SHT30;54238;52.278;21.056;2023-06-24T15:08:55;23.65;47.23
67354;SHT30;54238;52.278;21.056;2023-06-24T15:11:27;23.56;47.84
67354;SHT30;54238;52.278;21.056;2023-06-24T15:14:01;23.43;48.93
67354;SHT30;54238;52.278;21.056;2023-06-24T15:16:32;23.29;49.71
67354;SHT30;54238;52.278;21.056;2023-06-24T15:19:01;23.15;50.85
67354;SHT30;54238;52.278;21.056;2023-06-24T15:21:35;23.01;51.53
67354;SHT30;54238;52.278;21.056;2023-06-24T15:24:02;22.91;51.93
67354;SHT30;54238;52.278;21.056;2023-06-24T15:26:30;22.84;52.36
67354;SHT30;54238;52.278;21.056;2023-06-24T15:29:00;22.75;52.89
67354;SHT30;54238;52.278;21.056;2023-06-24T15:31:31;22.70;53.15
67354;SHT30;54238;52.278;21.056;2023-06-24T15:34:05;22.61;53.13
67354;SHT30;54238;52.278;21.056;2023-06-24T15:36:39;22.52;53.10
67354;SHT30;54238;52.278;21.056;2023-06-24T15:39:10;22.47;53.19
67354;SHT30;54238;52.278;21.056;2023-06-24T15:41:39;22.41;53.15
67354;SHT30;54238;52.278;21.056;2023-06-24T15:44:08;22.37;52.98
67354;SHT30;54238;52.278;21.056;2023-06-24T15:46:37;22.33;53.10
67354;SHT30;54238;52.278;21.056;2023-06-24T15:49:07;22.33;53.03
67354;SHT30;54238;52.278;21.056;2023-06-24T15:51:37;22.36;53.08
67354;SHT30;54238;52.278;21.056;2023-06-24T15:54:04;22.36;52.95